createdAt,value
2018-12-31T00:00:08.878Z,4.48
2018-12-31T00:01:08.684Z,4.54
2018-12-31T00:02:08.643Z,4.45
2018-12-31T00:03:08.645Z,4.42
2018-12-31T00:04:08.612Z,4.45
2018-12-31T00:05:08.625Z,4.42
2018-12-31T00:06:08.597Z,4.41
2018-12-31T00:07:09.503Z,4.34
2018-12-31T00:08:08.576Z,4.41
2018-12-31T00:09:08.561Z,4.44
2018-12-31T00:10:08.578Z,4.44
2018-12-31T00:11:08.543Z,4.48
2018-12-31T00:12:08.533Z,4.48
2018-12-31T00:13:08.521Z,4.41
2018-12-31T00:14:08.505Z,4.37
2018-12-31T00:15:08.522Z,4.41
2018-12-31T00:16:13.679Z,4.36
2018-12-31T00:17:08.540Z,4.37
2018-12-31T00:18:08.466Z,4.36
2018-12-31T00:20:12.215Z,4.40
2018-12-31T00:21:08.433Z,4.40
2018-12-31T00:22:08.431Z,4.45
2018-12-31T00:23:08.445Z,4.48
2018-12-31T00:24:08.416Z,4.37
2018-12-31T00:25:08.411Z,4.36
2018-12-31T00:26:08.383Z,4.40
2018-12-31T00:27:08.378Z,4.47
2018-12-31T00:28:08.362Z,4.33
2018-12-31T00:29:08.354Z,4.40
2018-12-31T00:30:08.401Z,4.41
2018-12-31T00:31:08.336Z,4.36
2018-12-31T00:32:08.319Z,4.40
2018-12-31T00:33:08.307Z,4.30
2018-12-31T00:34:08.297Z,4.41
2018-12-31T00:35:08.306Z,4.36
2018-12-31T00:36:08.283Z,4.37
2018-12-31T00:37:08.261Z,4.30
2018-12-31T00:38:08.251Z,4.32
2018-12-31T00:39:08.244Z,4.33
2018-12-31T00:40:08.263Z,4.30
2018-12-31T00:41:08.225Z,4.30
2018-12-31T00:42:08.230Z,4.41
2018-12-31T00:43:08.197Z,4.36
2018-12-31T00:44:08.195Z,4.29
2018-12-31T00:45:08.212Z,4.34
2018-12-31T00:46:08.165Z,4.37
2018-12-31T00:47:08.160Z,4.30
2018-12-31T00:48:08.148Z,4.44
2018-12-31T00:49:08.140Z,4.41
2018-12-31T00:50:08.126Z,4.40
2018-12-31T00:51:08.139Z,4.47
2018-12-31T00:52:08.111Z,4.36
2018-12-31T00:53:08.107Z,4.45
2018-12-31T00:54:08.091Z,4.45
2018-12-31T00:55:08.070Z,4.45
2018-12-31T00:56:08.077Z,4.41
2018-12-31T00:57:08.054Z,4.51
2018-12-31T00:58:08.042Z,4.47
2018-12-31T00:59:08.035Z,4.45
2018-12-31T01:00:08.019Z,4.51
2018-12-31T01:01:08.032Z,4.45
2018-12-31T01:02:08.005Z,4.45
2018-12-31T01:03:07.987Z,4.48
2018-12-31T01:04:07.988Z,4.50
2018-12-31T01:05:07.977Z,4.47
2018-12-31T01:06:07.986Z,4.42
2018-12-31T01:07:07.945Z,4.44
2018-12-31T01:08:07.938Z,4.48
2018-12-31T01:09:07.922Z,4.44
2018-12-31T01:10:07.915Z,4.44
2018-12-31T01:11:07.929Z,4.44
2018-12-31T01:12:07.889Z,4.44
2018-12-31T01:13:07.878Z,4.41
2018-12-31T01:14:07.885Z,4.41
2018-12-31T01:15:07.862Z,4.47
2018-12-31T01:16:07.870Z,4.54
2018-12-31T01:17:07.842Z,4.45
2018-12-31T01:18:07.826Z,4.44
2018-12-31T01:19:07.823Z,4.54
2018-12-31T01:20:07.814Z,4.52
2018-12-31T01:21:07.835Z,4.50
2018-12-31T01:22:07.791Z,4.45
2018-12-31T01:23:07.783Z,4.45
2018-12-31T01:24:07.767Z,4.47
2018-12-31T01:25:07.760Z,4.44
2018-12-31T01:26:07.772Z,4.50
2018-12-31T01:27:07.742Z,4.41
2018-12-31T01:28:07.742Z,4.51
2018-12-31T01:29:07.713Z,4.50
2018-12-31T01:30:07.703Z,4.48
2018-12-31T01:31:07.727Z,4.42
2018-12-31T01:32:07.689Z,4.48
2018-12-31T01:33:07.672Z,4.40
2018-12-31T01:34:07.678Z,4.41
2018-12-31T01:35:07.648Z,4.40
2018-12-31T01:36:08.067Z,4.47
2018-12-31T01:37:07.642Z,4.41
2018-12-31T01:38:07.619Z,4.41
2018-12-31T01:39:07.616Z,4.36
2018-12-31T01:40:07.597Z,4.34
2018-12-31T01:41:07.670Z,4.40
2018-12-31T01:42:07.977Z,4.41
2018-12-31T01:43:07.690Z,4.37
2018-12-31T01:44:07.558Z,4.33
2018-12-31T01:45:07.548Z,4.36
2018-12-31T01:46:07.534Z,4.33
2018-12-31T01:47:07.582Z,4.32
2018-12-31T01:48:07.540Z,4.30
2018-12-31T01:49:07.502Z,4.33
2018-12-31T01:50:07.492Z,4.37
2018-12-31T01:51:11.203Z,4.41
2018-12-31T01:52:07.492Z,4.37
2018-12-31T01:53:07.458Z,4.40
2018-12-31T01:54:07.470Z,4.41
2018-12-31T01:55:07.434Z,4.33
2018-12-31T01:56:07.429Z,4.30
2018-12-31T01:57:07.436Z,4.44
2018-12-31T01:58:07.402Z,4.33
2018-12-31T01:59:07.395Z,4.34
2018-12-31T02:00:07.390Z,4.27
2018-12-31T02:01:07.376Z,4.34
2018-12-31T02:02:07.380Z,4.37
2018-12-31T02:03:07.355Z,4.32
2018-12-31T02:04:07.342Z,4.36
2018-12-31T02:05:07.334Z,4.41
2018-12-31T02:06:07.317Z,4.44
2018-12-31T02:07:07.331Z,4.40
2018-12-31T02:08:07.304Z,4.37
2018-12-31T02:09:07.283Z,4.34
2018-12-31T02:10:07.274Z,4.36
2018-12-31T02:11:07.262Z,4.37
2018-12-31T02:12:07.285Z,4.34
2018-12-31T02:13:07.248Z,4.36
2018-12-31T02:14:07.249Z,4.33
2018-12-31T02:15:07.225Z,4.33
2018-12-31T02:16:07.217Z,4.36
2018-12-31T02:17:07.234Z,4.26
2018-12-31T02:18:07.192Z,4.30
2018-12-31T02:19:07.194Z,4.29
2018-12-31T02:20:07.178Z,4.29
2018-12-31T02:21:07.160Z,4.30
2018-12-31T02:22:07.152Z,4.29
2018-12-31T02:23:07.161Z,4.33
2018-12-31T02:24:07.126Z,4.30
2018-12-31T02:25:07.126Z,4.34
2018-12-31T02:26:07.116Z,4.30
2018-12-31T02:27:07.095Z,4.30
2018-12-31T02:28:07.099Z,4.37
2018-12-31T02:29:07.078Z,4.37
2018-12-31T02:30:07.069Z,4.45
2018-12-31T02:31:07.064Z,4.41
2018-12-31T02:32:07.051Z,4.41
2018-12-31T02:33:07.068Z,4.36
2018-12-31T02:34:07.023Z,4.36
2018-12-31T02:35:07.027Z,4.36
2018-12-31T02:36:07.007Z,4.41
2018-12-31T02:37:07.009Z,4.40
2018-12-31T02:38:07.014Z,4.50
2018-12-31T02:39:06.968Z,4.45
2018-12-31T02:40:06.959Z,4.44
2018-12-31T02:41:06.956Z,4.40
2018-12-31T02:42:06.937Z,4.29
2018-12-31T02:43:06.949Z,4.29
2018-12-31T02:44:06.917Z,4.34
2018-12-31T02:45:06.917Z,4.33
2018-12-31T02:46:06.890Z,4.30
2018-12-31T02:47:06.888Z,4.30
2018-12-31T02:48:06.919Z,4.32
2018-12-31T02:49:06.870Z,4.32
2018-12-31T02:50:06.859Z,4.27
2018-12-31T02:51:06.840Z,4.33
2018-12-31T02:52:06.830Z,4.29
2018-12-31T02:53:06.822Z,4.32
2018-12-31T02:54:06.844Z,4.26
2018-12-31T02:55:06.799Z,4.30
2018-12-31T02:56:06.795Z,4.34
2018-12-31T02:57:06.778Z,4.26
2018-12-31T02:58:06.795Z,4.26
2018-12-31T02:59:06.790Z,4.30
2018-12-31T03:00:06.758Z,4.30
2018-12-31T03:01:06.741Z,4.30
2018-12-31T03:02:06.726Z,4.30
2018-12-31T03:03:06.718Z,4.29
2018-12-31T03:04:06.731Z,4.33
2018-12-31T03:05:06.704Z,4.23
2018-12-31T03:06:06.691Z,4.26
2018-12-31T03:07:06.676Z,4.29
2018-12-31T03:08:06.666Z,4.30
2018-12-31T03:09:06.668Z,4.32
2018-12-31T03:10:06.645Z,4.29
2018-12-31T03:11:06.876Z,4.34
2018-12-31T03:12:06.631Z,4.27
2018-12-31T03:13:06.610Z,4.26
2018-12-31T03:14:06.615Z,4.26
2018-12-31T03:15:06.591Z,4.30
2018-12-31T03:16:06.582Z,4.30
2018-12-31T03:17:06.570Z,4.27
2018-12-31T03:18:06.563Z,4.33
2018-12-31T03:19:06.569Z,4.32
2018-12-31T03:20:06.537Z,4.33
2018-12-31T03:21:06.534Z,4.23
2018-12-31T03:22:06.598Z,4.27
2018-12-31T03:23:06.509Z,4.29
2018-12-31T03:24:06.519Z,4.27
2018-12-31T03:25:06.479Z,4.27
2018-12-31T03:26:06.468Z,4.11
2018-12-31T03:27:06.461Z,4.14
2018-12-31T03:28:06.448Z,4.18
2018-12-31T03:29:06.467Z,4.15
2018-12-31T03:30:06.436Z,4.15
2018-12-31T03:31:06.427Z,4.29
2018-12-31T03:32:06.415Z,4.22
2018-12-31T03:33:06.409Z,4.26
2018-12-31T03:34:06.388Z,4.24
2018-12-31T03:35:06.447Z,4.27
2018-12-31T03:36:06.431Z,4.30
2018-12-31T03:37:06.357Z,4.26
2018-12-31T03:38:06.350Z,4.23
2018-12-31T03:39:06.355Z,4.30
2018-12-31T03:40:06.339Z,4.26
2018-12-31T03:41:06.317Z,4.30
2018-12-31T03:42:06.304Z,4.29
2018-12-31T03:43:06.296Z,4.11
2018-12-31T03:44:06.303Z,4.26
2018-12-31T03:45:06.290Z,4.23
2018-12-31T03:46:06.266Z,4.27
2018-12-31T03:47:06.251Z,4.18
2018-12-31T03:48:06.241Z,4.22
2018-12-31T03:49:06.231Z,4.18
2018-12-31T03:50:06.283Z,4.27
2018-12-31T03:51:06.213Z,4.14
2018-12-31T03:52:06.197Z,4.14
2018-12-31T03:53:06.197Z,4.22
2018-12-31T03:54:06.176Z,4.15
2018-12-31T03:55:06.182Z,4.15
2018-12-31T03:56:06.156Z,4.15
2018-12-31T03:57:06.142Z,4.11
2018-12-31T03:58:06.138Z,4.22
2018-12-31T03:59:06.119Z,4.29
2018-12-31T04:00:06.128Z,4.27
2018-12-31T04:01:06.101Z,4.26
2018-12-31T04:02:06.099Z,4.32
2018-12-31T04:03:06.080Z,4.23
2018-12-31T04:04:06.073Z,4.27
2018-12-31T04:05:06.079Z,4.18
2018-12-31T04:06:06.055Z,4.12
2018-12-31T04:07:06.040Z,4.18
2018-12-31T04:08:06.048Z,4.23
2018-12-31T04:09:06.019Z,4.15
2018-12-31T04:10:06.030Z,4.15
2018-12-31T04:11:05.995Z,4.18
2018-12-31T04:12:05.982Z,4.16
2018-12-31T04:13:05.976Z,4.11
2018-12-31T04:14:05.962Z,4.18
2018-12-31T04:15:05.974Z,4.18
2018-12-31T04:16:05.945Z,4.18
2018-12-31T04:17:05.932Z,4.24
2018-12-31T04:18:05.923Z,4.20
2018-12-31T04:19:05.905Z,4.26
2018-12-31T04:20:05.926Z,4.20
2018-12-31T04:21:05.892Z,4.32
2018-12-31T04:22:05.879Z,4.26
2018-12-31T04:23:05.869Z,4.23
2018-12-31T04:24:05.864Z,4.30
2018-12-31T04:25:05.909Z,4.29
2018-12-31T04:26:05.835Z,4.18
2018-12-31T04:27:05.835Z,4.29
2018-12-31T04:28:05.817Z,4.24
2018-12-31T04:29:05.802Z,4.22
2018-12-31T04:30:05.830Z,4.22
2018-12-31T04:31:05.794Z,4.20
2018-12-31T04:32:05.775Z,4.27
2018-12-31T04:33:05.769Z,4.24
2018-12-31T04:34:05.755Z,4.24
2018-12-31T04:35:05.748Z,4.27
2018-12-31T04:36:05.757Z,4.33
2018-12-31T04:37:05.716Z,4.30
2018-12-31T04:38:05.711Z,4.29
2018-12-31T04:39:05.703Z,4.34
2018-12-31T04:40:05.693Z,4.41
2018-12-31T04:41:05.693Z,4.41
2018-12-31T04:42:05.664Z,4.37
2018-12-31T04:43:05.656Z,4.36
2018-12-31T04:44:05.645Z,4.37
2018-12-31T04:45:05.652Z,4.44
2018-12-31T04:46:05.640Z,4.42
2018-12-31T04:47:05.619Z,4.41
2018-12-31T04:48:05.600Z,4.41
2018-12-31T04:49:05.593Z,4.45
2018-12-31T04:50:05.586Z,4.40
2018-12-31T04:51:05.589Z,4.45
2018-12-31T04:52:05.563Z,4.48
2018-12-31T04:53:05.548Z,4.42
2018-12-31T04:54:05.543Z,4.48
2018-12-31T04:55:05.525Z,4.45
2018-12-31T04:56:05.536Z,4.51
2018-12-31T04:57:05.501Z,4.48
2018-12-31T04:58:05.499Z,4.48
2018-12-31T04:59:05.487Z,4.45
2018-12-31T05:00:05.471Z,4.44
2018-12-31T05:01:05.477Z,4.48
2018-12-31T05:02:05.463Z,4.36
2018-12-31T05:03:05.445Z,4.45
2018-12-31T05:04:05.431Z,4.44
2018-12-31T05:05:05.424Z,4.51
2018-12-31T05:06:05.435Z,4.42
2018-12-31T05:07:05.409Z,4.47
2018-12-31T05:08:05.396Z,4.54
2018-12-31T05:09:05.382Z,4.48
2018-12-31T05:10:05.379Z,4.50
2018-12-31T05:11:05.379Z,4.51
2018-12-31T05:12:05.343Z,4.50
2018-12-31T05:13:05.338Z,4.48
2018-12-31T05:14:05.324Z,4.48
2018-12-31T05:15:05.314Z,4.51
2018-12-31T05:16:05.331Z,4.50
2018-12-31T05:17:05.299Z,4.55
2018-12-31T05:18:05.289Z,4.55
2018-12-31T05:19:05.276Z,4.59
2018-12-31T05:20:05.268Z,4.55
2018-12-31T05:21:05.255Z,4.59
2018-12-31T05:22:05.257Z,4.65
2018-12-31T05:23:05.408Z,4.63
2018-12-31T05:24:05.218Z,4.62
2018-12-31T05:25:05.209Z,4.62
2018-12-31T05:26:05.199Z,4.58
2018-12-31T05:27:05.304Z,4.62
2018-12-31T05:28:05.181Z,4.65
2018-12-31T05:29:05.168Z,4.66
2018-12-31T05:30:05.165Z,4.67
2018-12-31T05:31:05.158Z,4.59
2018-12-31T05:32:05.152Z,4.62
2018-12-31T05:33:05.130Z,4.62
2018-12-31T05:34:05.114Z,4.60
2018-12-31T05:35:05.101Z,4.62
2018-12-31T05:36:05.094Z,4.62
2018-12-31T05:37:05.098Z,4.62
2018-12-31T05:38:05.072Z,4.58
2018-12-31T05:39:05.064Z,4.60
2018-12-31T05:40:05.058Z,4.63
2018-12-31T05:41:05.041Z,4.72
2018-12-31T05:42:05.053Z,4.60
2018-12-31T05:43:05.019Z,4.67
2018-12-31T05:44:05.010Z,4.73
2018-12-31T05:45:05.045Z,4.66
2018-12-31T05:46:04.988Z,4.77
2018-12-31T05:47:05.001Z,4.77
2018-12-31T05:48:04.970Z,4.80
2018-12-31T05:49:04.961Z,4.86
2018-12-31T05:50:04.942Z,4.67
2018-12-31T05:51:04.937Z,4.75
2018-12-31T05:52:04.948Z,4.75
2018-12-31T05:53:04.914Z,4.75
2018-12-31T05:54:04.912Z,4.82
2018-12-31T05:55:04.890Z,4.77
2018-12-31T05:56:04.878Z,4.66
2018-12-31T05:57:04.890Z,4.77
2018-12-31T05:58:04.864Z,4.80
2018-12-31T05:59:04.854Z,4.73
2018-12-31T06:00:04.834Z,4.75
2018-12-31T06:01:04.829Z,4.70
2018-12-31T06:02:04.846Z,4.73
2018-12-31T06:03:04.810Z,4.80
2018-12-31T06:04:04.796Z,4.75
2018-12-31T06:05:04.786Z,4.78
2018-12-31T06:06:04.786Z,4.86
2018-12-31T06:07:04.768Z,4.80
2018-12-31T06:08:04.770Z,4.78
2018-12-31T06:09:04.742Z,4.78
2018-12-31T06:10:04.730Z,4.85
2018-12-31T06:11:04.724Z,4.84
2018-12-31T06:12:04.708Z,4.82
2018-12-31T06:13:04.722Z,4.85
2018-12-31T06:14:04.690Z,4.82
2018-12-31T06:15:04.684Z,4.88
2018-12-31T06:16:04.668Z,4.88
2018-12-31T06:17:05.268Z,4.94
2018-12-31T06:18:04.665Z,4.94
2018-12-31T06:19:04.637Z,4.92
2018-12-31T06:20:04.625Z,4.96
2018-12-31T06:21:04.614Z,4.85
2018-12-31T06:22:04.608Z,4.88
2018-12-31T06:23:04.614Z,4.89
2018-12-31T06:24:04.593Z,5.02
2018-12-31T06:25:04.580Z,4.91
2018-12-31T06:26:04.561Z,4.97
2018-12-31T06:27:04.555Z,4.94
2018-12-31T06:28:04.573Z,4.86
2018-12-31T06:29:04.557Z,4.86
2018-12-31T06:30:04.521Z,4.86
2018-12-31T06:31:04.512Z,4.89
2018-12-31T06:32:04.501Z,4.97
2018-12-31T06:33:04.506Z,4.94
2018-12-31T06:34:04.478Z,4.89
2018-12-31T06:35:04.469Z,4.86
2018-12-31T06:36:04.467Z,4.91
2018-12-31T06:37:04.447Z,4.96
2018-12-31T06:38:04.459Z,4.94
2018-12-31T06:39:04.422Z,5.02
2018-12-31T06:40:04.415Z,4.99
2018-12-31T06:41:04.401Z,4.99
2018-12-31T06:42:04.391Z,4.99
2018-12-31T06:43:04.410Z,5.02
2018-12-31T06:44:04.382Z,4.99
2018-12-31T06:45:04.360Z,4.97
2018-12-31T06:46:04.357Z,4.99
2018-12-31T06:47:04.337Z,4.97
2018-12-31T06:48:04.329Z,5.02
2018-12-31T06:49:04.344Z,5.02
2018-12-31T06:50:04.309Z,5.04
2018-12-31T06:51:04.302Z,5.03
2018-12-31T06:52:04.284Z,4.99
2018-12-31T06:53:04.275Z,5.02
2018-12-31T06:54:04.289Z,4.96
2018-12-31T06:55:04.253Z,5.07
2018-12-31T06:56:04.239Z,5.00
2018-12-31T06:57:04.233Z,5.04
2018-12-31T06:58:04.223Z,5.09
2018-12-31T06:59:04.228Z,5.04
2018-12-31T07:00:04.205Z,5.06
2018-12-31T07:01:04.194Z,5.06
2018-12-31T07:02:04.174Z,5.10
2018-12-31T07:03:04.169Z,5.07
2018-12-31T07:04:04.839Z,5.04
2018-12-31T07:05:04.145Z,5.15
2018-12-31T07:06:04.136Z,5.03
2018-12-31T07:07:04.131Z,5.07
2018-12-31T07:08:04.112Z,5.09
2018-12-31T07:09:04.120Z,5.06
2018-12-31T07:10:04.098Z,5.10
2018-12-31T07:11:04.082Z,5.06
2018-12-31T07:12:04.070Z,5.10
2018-12-31T07:13:04.061Z,5.06
2018-12-31T07:14:04.067Z,5.15
2018-12-31T07:15:04.049Z,5.13
2018-12-31T07:16:04.035Z,5.10
2018-12-31T07:17:04.030Z,5.18
2018-12-31T07:18:04.008Z,5.18
2018-12-31T07:19:04.022Z,5.15
2018-12-31T07:20:04.007Z,5.15
2018-12-31T07:21:03.976Z,5.15
2018-12-31T07:22:03.965Z,5.17
2018-12-31T07:23:03.954Z,5.18
2018-12-31T07:24:03.944Z,5.18
2018-12-31T07:25:03.955Z,5.17
2018-12-31T07:26:03.930Z,5.15
2018-12-31T07:27:03.914Z,5.25
2018-12-31T07:28:03.902Z,5.20
2018-12-31T07:29:03.899Z,5.15
2018-12-31T07:30:03.906Z,5.17
2018-12-31T07:31:03.865Z,5.21
2018-12-31T07:32:03.859Z,5.27
2018-12-31T07:33:03.848Z,5.22
2018-12-31T07:34:03.850Z,5.24
2018-12-31T07:35:03.841Z,5.24
2018-12-31T07:36:03.826Z,5.22
2018-12-31T07:37:03.809Z,5.17
2018-12-31T07:38:03.801Z,5.22
2018-12-31T07:39:03.787Z,5.24
2018-12-31T07:40:03.790Z,5.22
2018-12-31T07:41:03.765Z,5.24
2018-12-31T07:42:03.782Z,5.27
2018-12-31T07:43:03.747Z,5.30
2018-12-31T07:44:03.736Z,5.33
2018-12-31T07:45:03.739Z,5.24
2018-12-31T07:46:03.709Z,5.25
2018-12-31T07:47:03.699Z,5.28
2018-12-31T07:48:03.692Z,5.30
2018-12-31T07:49:03.688Z,5.31
2018-12-31T07:50:03.684Z,5.28
2018-12-31T07:51:03.658Z,5.30
2018-12-31T07:52:03.648Z,5.28
2018-12-31T07:53:03.638Z,5.30
2018-12-31T07:54:03.622Z,5.31
2018-12-31T07:55:03.632Z,5.30
2018-12-31T07:56:03.604Z,5.30
2018-12-31T07:57:03.598Z,5.28
2018-12-31T07:58:03.589Z,5.30
2018-12-31T07:59:03.600Z,5.28
2018-12-31T08:00:03.584Z,5.35
2018-12-31T08:01:03.552Z,5.42
2018-12-31T08:02:03.538Z,5.33
2018-12-31T08:03:03.532Z,5.31
2018-12-31T08:04:03.521Z,5.42
2018-12-31T08:05:03.535Z,5.45
2018-12-31T08:06:03.504Z,5.45
2018-12-31T08:07:03.492Z,5.43
2018-12-31T08:08:03.478Z,5.46
2018-12-31T08:09:03.474Z,5.40
2018-12-31T08:10:03.485Z,5.49
2018-12-31T08:11:03.443Z,5.43
2018-12-31T08:12:03.439Z,5.43
2018-12-31T08:13:03.428Z,5.51
2018-12-31T08:14:03.412Z,5.46
2018-12-31T08:15:03.425Z,5.54
2018-12-31T08:16:03.403Z,5.46
2018-12-31T08:17:03.411Z,5.43
2018-12-31T08:18:03.378Z,5.49
2018-12-31T08:19:03.362Z,5.48
2018-12-31T08:20:03.346Z,5.54
2018-12-31T08:21:03.361Z,5.53
2018-12-31T08:22:03.333Z,5.57
2018-12-31T08:23:03.321Z,5.58
2018-12-31T08:24:03.311Z,5.53
2018-12-31T08:25:03.295Z,5.61
2018-12-31T08:26:03.302Z,5.61
2018-12-31T08:27:03.279Z,5.65
2018-12-31T08:28:03.277Z,5.60
2018-12-31T08:29:03.257Z,5.61
2018-12-31T08:30:03.247Z,5.61
2018-12-31T08:31:03.251Z,5.64
2018-12-31T08:32:03.225Z,5.68
2018-12-31T08:33:03.215Z,5.58
2018-12-31T08:34:03.203Z,5.72
2018-12-31T08:35:03.195Z,5.65
2018-12-31T08:36:03.205Z,5.68
2018-12-31T08:37:03.168Z,5.61
2018-12-31T08:38:03.158Z,5.60
2018-12-31T08:39:03.150Z,5.64
2018-12-31T08:40:03.138Z,5.65
2018-12-31T08:41:03.146Z,5.68
2018-12-31T08:42:03.139Z,5.67
2018-12-31T08:43:03.100Z,5.65
2018-12-31T08:44:03.097Z,5.65
2018-12-31T08:45:03.180Z,5.68
2018-12-31T08:46:03.074Z,5.72
2018-12-31T08:47:03.079Z,5.78
2018-12-31T08:48:03.051Z,5.78
2018-12-31T08:49:03.040Z,5.79
2018-12-31T08:50:03.452Z,5.90
2018-12-31T08:51:03.019Z,5.93
2018-12-31T08:52:03.043Z,5.94
2018-12-31T08:53:03.050Z,5.96
2018-12-31T08:54:02.989Z,5.93
2018-12-31T08:55:02.977Z,5.97
2018-12-31T08:56:02.963Z,6.06
2018-12-31T08:57:02.977Z,6.06
2018-12-31T08:58:02.949Z,6.03
2018-12-31T08:59:02.932Z,6.21
2018-12-31T09:00:02.925Z,6.27
2018-12-31T09:01:02.911Z,6.22
2018-12-31T09:02:02.940Z,6.30
2018-12-31T09:03:02.893Z,6.30
2018-12-31T09:04:02.905Z,6.30
2018-12-31T09:05:02.871Z,6.27
2018-12-31T09:06:02.857Z,6.34
2018-12-31T09:07:02.867Z,6.37
2018-12-31T09:08:02.836Z,6.33
2018-12-31T09:09:02.845Z,6.33
2018-12-31T09:10:02.843Z,6.27
2018-12-31T09:11:02.913Z,6.25
2018-12-31T09:12:02.813Z,6.18
2018-12-31T09:13:02.786Z,6.14
2018-12-31T09:14:02.783Z,6.27
2018-12-31T09:15:02.763Z,6.25
2018-12-31T09:16:02.757Z,6.11
2018-12-31T09:17:02.930Z,6.12
2018-12-31T09:18:02.731Z,6.18
2018-12-31T09:19:02.725Z,6.27
2018-12-31T09:20:02.715Z,6.04
2018-12-31T09:21:02.700Z,6.21
2018-12-31T09:22:02.713Z,6.21
2018-12-31T09:23:02.677Z,6.27
2018-12-31T09:24:02.736Z,6.22
2018-12-31T09:25:02.662Z,6.28
2018-12-31T09:26:02.657Z,6.17
2018-12-31T09:27:02.651Z,6.30
2018-12-31T09:28:03.585Z,6.21
2018-12-31T09:29:02.623Z,6.25
2018-12-31T09:30:02.605Z,6.22
2018-12-31T09:31:02.599Z,6.30
2018-12-31T09:32:02.613Z,6.27
2018-12-31T09:33:02.583Z,6.21
2018-12-31T09:34:02.561Z,6.09
2018-12-31T09:35:02.559Z,6.27
2018-12-31T09:36:02.537Z,6.30
2018-12-31T09:37:02.534Z,6.25
2018-12-31T09:38:02.545Z,6.17
2018-12-31T09:39:02.513Z,6.19
2018-12-31T09:40:02.516Z,6.28
2018-12-31T09:41:02.493Z,6.33
2018-12-31T09:42:02.483Z,6.40
2018-12-31T09:43:02.487Z,6.52
2018-12-31T09:44:02.459Z,6.54
2018-12-31T09:45:02.451Z,6.49
2018-12-31T09:46:02.436Z,6.46
2018-12-31T09:47:02.423Z,6.33
2018-12-31T09:48:02.432Z,6.34
2018-12-31T09:49:02.407Z,6.44
2018-12-31T09:50:02.395Z,6.54
2018-12-31T09:51:02.386Z,6.52
2018-12-31T09:52:02.371Z,6.52
2018-12-31T09:53:02.381Z,6.48
2018-12-31T09:54:02.355Z,6.56
2018-12-31T09:55:02.346Z,6.58
2018-12-31T09:56:02.340Z,6.56
2018-12-31T09:57:02.314Z,6.56
2018-12-31T09:58:02.323Z,6.56
2018-12-31T09:59:02.300Z,6.54
2018-12-31T10:00:02.287Z,6.46
2018-12-31T10:01:02.305Z,6.62
2018-12-31T10:02:02.275Z,6.64
2018-12-31T10:03:02.282Z,6.77
2018-12-31T10:04:02.243Z,6.70
2018-12-31T10:05:02.230Z,6.66
2018-12-31T10:06:02.225Z,6.81
2018-12-31T10:07:02.213Z,6.80
2018-12-31T10:08:02.204Z,6.77
2018-12-31T10:09:02.215Z,6.73
2018-12-31T10:10:02.180Z,6.70
2018-12-31T10:11:02.170Z,6.69
2018-12-31T10:12:02.157Z,6.67
2018-12-31T10:13:02.162Z,6.77
2018-12-31T10:14:02.158Z,6.77
2018-12-31T10:15:02.131Z,6.71
2018-12-31T10:16:02.573Z,6.74
2018-12-31T10:17:02.107Z,6.70
2018-12-31T10:18:02.097Z,6.92
2018-12-31T10:19:02.097Z,6.92
2018-12-31T10:21:03.065Z,6.95
2018-12-31T10:22:02.059Z,7.05
2018-12-31T10:23:02.044Z,7.02
2018-12-31T10:24:02.375Z,7.10
2018-12-31T10:25:02.026Z,7.27
2018-12-31T10:26:02.029Z,7.25
2018-12-31T10:27:03.526Z,7.40
2018-12-31T10:28:01.987Z,7.40
2018-12-31T10:29:02.001Z,7.48
2018-12-31T10:30:01.966Z,7.40
2018-12-31T10:31:01.963Z,7.40
2018-12-31T10:32:01.946Z,7.39
2018-12-31T10:33:01.941Z,7.35
2018-12-31T10:34:01.955Z,7.46
2018-12-31T10:35:01.923Z,7.40
2018-12-31T10:36:01.905Z,7.43
2018-12-31T10:37:01.901Z,7.45
2018-12-31T10:38:01.888Z,7.53
2018-12-31T10:39:01.868Z,7.57
2018-12-31T10:40:01.879Z,7.49
2018-12-31T10:41:01.947Z,7.48
2018-12-31T10:42:01.844Z,7.45
2018-12-31T10:43:01.839Z,7.50
2018-12-31T10:44:01.833Z,7.43
2018-12-31T10:45:01.831Z,7.37
2018-12-31T10:46:01.793Z,7.31
2018-12-31T10:47:01.786Z,7.28
2018-12-31T10:48:01.781Z,7.10
2018-12-31T10:49:01.771Z,6.99
2018-12-31T10:50:01.794Z,7.06
2018-12-31T10:51:01.745Z,6.97
2018-12-31T10:52:01.746Z,6.98
2018-12-31T10:53:01.722Z,6.95
2018-12-31T10:54:01.711Z,6.91
2018-12-31T10:55:01.728Z,6.87
2018-12-31T10:56:01.694Z,6.91
2018-12-31T10:57:01.680Z,6.98
2018-12-31T10:58:01.671Z,7.03
2018-12-31T10:59:01.657Z,7.03
2018-12-31T11:00:02.045Z,7.10
2018-12-31T11:01:01.639Z,7.15
2018-12-31T11:02:01.630Z,7.24
2018-12-31T11:03:01.620Z,7.27
2018-12-31T11:04:01.600Z,7.31
2018-12-31T11:05:01.628Z,7.34
2018-12-31T11:06:01.598Z,7.37
2018-12-31T11:07:01.576Z,7.32
2018-12-31T11:08:01.561Z,7.46
2018-12-31T11:09:01.564Z,7.50
2018-12-31T11:10:01.546Z,7.52
2018-12-31T11:11:01.543Z,7.49
2018-12-31T11:12:01.536Z,7.55
2018-12-31T11:13:02.231Z,7.50
2018-12-31T11:14:01.500Z,7.50
2018-12-31T11:15:01.506Z,7.50
2018-12-31T11:16:01.498Z,7.64
2018-12-31T11:17:01.467Z,7.69
2018-12-31T11:18:01.466Z,7.71
2018-12-31T11:19:01.447Z,7.67
2018-12-31T11:20:01.433Z,7.79
2018-12-31T11:21:01.456Z,7.72
2018-12-31T11:22:01.413Z,7.61
2018-12-31T11:23:01.407Z,7.68
2018-12-31T11:24:01.423Z,7.75
2018-12-31T11:25:01.376Z,7.72
2018-12-31T11:26:01.387Z,7.71
2018-12-31T11:27:01.399Z,7.72
2018-12-31T11:28:01.356Z,7.80
2018-12-31T11:29:01.344Z,7.77
2018-12-31T11:30:01.329Z,7.80
2018-12-31T11:31:01.369Z,7.79
2018-12-31T11:32:01.304Z,7.80
2018-12-31T11:33:01.294Z,7.87
2018-12-31T11:34:01.289Z,7.86
2018-12-31T11:35:01.282Z,7.92
2018-12-31T11:36:01.262Z,7.87
2018-12-31T11:37:01.266Z,7.77
2018-12-31T11:38:01.243Z,7.89
2018-12-31T11:39:01.231Z,7.86
2018-12-31T11:40:01.238Z,7.85
2018-12-31T11:41:01.209Z,7.83
2018-12-31T11:42:01.210Z,7.71
2018-12-31T11:43:01.188Z,7.71
2018-12-31T11:44:01.182Z,7.74
2018-12-31T11:45:01.170Z,7.74
2018-12-31T11:46:01.160Z,7.85
2018-12-31T11:47:01.163Z,7.71
2018-12-31T11:48:01.130Z,7.77
2018-12-31T11:49:01.133Z,7.80
2018-12-31T11:50:01.109Z,7.83
2018-12-31T11:51:01.099Z,7.83
2018-12-31T11:52:01.115Z,7.82
2018-12-31T11:53:01.082Z,7.69
2018-12-31T11:54:01.068Z,7.72
2018-12-31T11:55:01.057Z,7.83
2018-12-31T11:56:01.066Z,7.85
2018-12-31T11:57:01.079Z,7.95
2018-12-31T11:58:01.022Z,7.92
2018-12-31T11:59:01.014Z,8.02
2018-12-31T12:00:01.003Z,8.20
2018-12-31T12:01:00.993Z,8.30
2018-12-31T12:02:01.006Z,8.44
2018-12-31T12:03:01.020Z,8.56
2018-12-31T12:04:00.962Z,8.65
2018-12-31T12:05:00.950Z,8.68
2018-12-31T12:06:00.939Z,8.56
2018-12-31T12:07:00.981Z,8.50
2018-12-31T12:08:00.916Z,8.28
2018-12-31T12:09:00.913Z,8.25
2018-12-31T12:10:00.903Z,8.08
2018-12-31T12:11:00.900Z,8.10
2018-12-31T12:12:00.897Z,8.05
2018-12-31T12:13:00.862Z,8.01
2018-12-31T12:14:00.857Z,8.00
2018-12-31T12:15:00.855Z,7.92
2018-12-31T12:16:00.868Z,7.93
2018-12-31T12:17:00.837Z,7.85
2018-12-31T12:18:00.820Z,7.80
2018-12-31T12:19:00.800Z,7.85
2018-12-31T12:20:00.796Z,7.80
2018-12-31T12:21:00.774Z,7.89
2018-12-31T12:22:00.801Z,7.89
2018-12-31T12:23:00.793Z,8.02
2018-12-31T12:24:00.746Z,8.11
2018-12-31T12:25:00.740Z,8.19
2018-12-31T12:26:00.734Z,8.11
2018-12-31T12:27:00.735Z,8.10
2018-12-31T12:28:00.707Z,8.08
2018-12-31T12:29:00.694Z,8.02
2018-12-31T12:30:00.684Z,8.04
2018-12-31T12:31:00.676Z,8.04
2018-12-31T12:32:00.680Z,7.98
2018-12-31T12:33:00.656Z,8.10
2018-12-31T12:34:00.637Z,8.00
2018-12-31T12:35:00.624Z,8.05
2018-12-31T12:36:00.619Z,8.01
2018-12-31T12:37:00.619Z,7.95
2018-12-31T12:38:00.610Z,7.93
2018-12-31T12:39:00.584Z,8.01
2018-12-31T12:40:00.570Z,7.90
2018-12-31T12:41:00.563Z,7.89
2018-12-31T12:42:00.574Z,7.93
2018-12-31T12:43:00.562Z,7.90
2018-12-31T12:44:00.539Z,7.87
2018-12-31T12:45:00.521Z,7.87
2018-12-31T12:46:00.508Z,7.90
2018-12-31T12:47:00.502Z,7.89
2018-12-31T12:48:00.505Z,7.97
2018-12-31T12:49:00.482Z,7.83
2018-12-31T12:50:00.469Z,7.80
2018-12-31T12:51:00.471Z,7.75
2018-12-31T12:52:00.452Z,7.86
2018-12-31T12:53:00.462Z,7.85
2018-12-31T12:54:00.432Z,7.74
2018-12-31T12:55:00.417Z,7.74
2018-12-31T12:56:00.404Z,7.69
2018-12-31T12:57:00.394Z,7.68
2018-12-31T12:58:00.404Z,7.75
2018-12-31T12:59:00.384Z,7.74
2018-12-31T13:00:00.361Z,7.85
2018-12-31T13:01:00.361Z,7.83
2018-12-31T13:02:00.340Z,7.80
2018-12-31T13:03:00.344Z,7.82
2018-12-31T13:04:00.315Z,7.77
2018-12-31T13:05:03.879Z,7.82
2018-12-31T13:06:00.302Z,7.93
2018-12-31T13:07:00.284Z,7.92
2018-12-31T13:08:00.302Z,8.05
2018-12-31T13:09:00.258Z,7.93
2018-12-31T13:10:00.250Z,7.95
2018-12-31T13:11:00.242Z,7.92
2018-12-31T13:12:00.235Z,7.97
2018-12-31T13:13:00.239Z,7.87
2018-12-31T13:14:00.228Z,7.95
2018-12-31T13:15:00.202Z,7.87
2018-12-31T13:16:00.196Z,7.82
2018-12-31T13:17:00.180Z,7.86
2018-12-31T13:18:00.176Z,7.87
2018-12-31T13:19:00.190Z,7.95
2018-12-31T13:20:00.281Z,7.90